createdAt,value
2022-09-21T00:00:25.889Z,55.14
2022-09-21T00:02:57.050Z,55.02
2022-09-21T00:05:25.176Z,54.62
2022-09-21T00:07:52.838Z,55.20
2022-09-21T00:10:22.274Z,55.53
2022-09-21T00:12:49.740Z,54.69
2022-09-21T00:15:20.725Z,55.67
2022-09-21T00:17:51.627Z,54.53
2022-09-21T00:20:20.764Z,54.61
2022-09-21T00:22:52.166Z,54.23
2022-09-21T00:25:21.413Z,54.79
2022-09-21T00:27:51.491Z,54.42
2022-09-21T00:30:19.017Z,54.00
2022-09-21T00:32:46.383Z,54.03
2022-09-21T00:35:13.905Z,54.05
2022-09-21T00:37:41.292Z,54.41
2022-09-21T00:40:09.306Z,54.65
2022-09-21T00:42:37.292Z,54.57
2022-09-21T00:45:06.595Z,54.83
2022-09-21T00:47:45.718Z,54.74
2022-09-21T00:50:16.665Z,55.34
2022-09-21T00:52:48.879Z,55.14
2022-09-21T00:55:48.266Z,55.40
2022-09-21T00:58:23.119Z,55.89
2022-09-21T01:00:50.317Z,56.09
2022-09-21T01:03:17.427Z,56.46
2022-09-21T01:05:44.645Z,55.36
2022-09-21T01:08:15.857Z,55.21
2022-09-21T01:11:12.246Z,55.20
2022-09-21T01:13:56.571Z,55.26
2022-09-21T01:16:34.475Z,55.36
2022-09-21T01:19:36.597Z,55.59
2022-09-21T01:22:32.380Z,54.83
2022-09-21T01:26:02.781Z,55.16
2022-09-21T01:29:02.211Z,54.99
2022-09-21T01:31:40.253Z,54.53
2022-09-21T01:34:36.481Z,54.99
2022-09-21T01:37:11.941Z,55.60
2022-09-21T01:39:42.508Z,55.66
2022-09-21T01:42:13.204Z,56.03
2022-09-21T01:44:43.202Z,56.50
2022-09-21T01:47:15.302Z,56.22
2022-09-21T01:49:48.245Z,55.82
2022-09-21T01:52:38.386Z,55.65
2022-09-21T01:55:13.458Z,55.72
2022-09-21T01:58:04.395Z,55.64
2022-09-21T02:00:34.628Z,55.71
2022-09-21T02:03:14.058Z,55.75
2022-09-21T02:05:41.884Z,55.79
2022-09-21T02:08:10.431Z,56.56
2022-09-21T02:10:45.973Z,56.84
2022-09-21T02:13:16.761Z,57.44
2022-09-21T02:16:07.133Z,57.25
2022-09-21T02:18:51.062Z,57.37
2022-09-21T02:21:52.316Z,57.10
2022-09-21T02:24:47.267Z,57.19
2022-09-21T02:27:53.175Z,56.76
2022-09-21T02:30:23.859Z,56.23
2022-09-21T02:33:23.804Z,56.02
2022-09-21T02:36:01.391Z,55.70
2022-09-21T02:38:34.619Z,55.71
2022-09-21T02:41:20.421Z,55.81
2022-09-21T02:44:33.751Z,55.91
2022-09-21T02:47:10.795Z,55.80
2022-09-21T02:49:52.259Z,55.98
2022-09-21T02:52:22.247Z,55.98
2022-09-21T02:54:52.512Z,55.91
2022-09-21T02:57:22.383Z,57.08
2022-09-21T02:59:51.183Z,56.68
2022-09-21T03:02:18.310Z,56.52
2022-09-21T03:04:48.407Z,56.61
2022-09-21T03:07:16.832Z,56.52
2022-09-21T03:09:44.245Z,56.44
2022-09-21T03:12:11.617Z,56.41
2022-09-21T03:14:40.993Z,56.74
2022-09-21T03:17:09.012Z,56.56
2022-09-21T03:19:36.348Z,56.56
2022-09-21T03:22:04.318Z,56.34
2022-09-21T03:24:46.382Z,56.39
2022-09-21T03:27:19.917Z,56.15
2022-09-21T03:29:47.712Z,56.51
2022-09-21T03:32:14.871Z,56.32
2022-09-21T03:34:42.106Z,56.44
2022-09-21T03:37:10.866Z,56.41
2022-09-21T03:39:37.989Z,56.54
2022-09-21T03:42:05.216Z,56.27
2022-09-21T03:44:32.309Z,55.98
2022-09-21T03:46:59.548Z,56.11
2022-09-21T03:49:26.748Z,56.48
2022-09-21T03:51:54.669Z,56.36
2022-09-21T03:54:21.724Z,55.79
2022-09-21T03:56:48.895Z,55.69
2022-09-21T03:59:16.068Z,56.63
2022-09-21T04:01:43.884Z,56.62
2022-09-21T04:04:11.058Z,56.69
2022-09-21T04:06:38.397Z,56.88
2022-09-21T04:09:05.670Z,57.16
2022-09-21T04:11:33.370Z,56.99
2022-09-21T04:14:00.529Z,57.07
2022-09-21T04:16:28.440Z,56.72
2022-09-21T04:18:56.026Z,56.18
2022-09-21T04:21:23.416Z,56.34
2022-09-21T04:23:51.133Z,55.86
2022-09-21T04:26:31.767Z,55.85
2022-09-21T04:28:59.658Z,56.40
2022-09-21T04:31:28.710Z,56.85
2022-09-21T04:33:58.407Z,57.28
2022-09-21T04:36:31.067Z,57.24
2022-09-21T04:39:05.154Z,57.36
2022-09-21T04:41:32.656Z,57.72
2022-09-21T04:44:00.195Z,57.52
2022-09-21T04:46:27.357Z,58.53
2022-09-21T04:48:54.587Z,58.48
2022-09-21T04:51:21.927Z,58.29
2022-09-21T04:53:48.976Z,58.18
2022-09-21T04:56:16.842Z,57.52
2022-09-21T04:58:44.413Z,57.31
2022-09-21T05:01:11.973Z,57.25
2022-09-21T05:03:39.545Z,57.00
2022-09-21T05:06:06.917Z,56.83
2022-09-21T05:08:52.569Z,56.76
2022-09-21T05:11:19.827Z,56.96
2022-09-21T05:13:48.007Z,57.08
2022-09-21T05:16:16.852Z,56.95
2022-09-21T05:18:44.958Z,57.00
2022-09-21T05:21:13.863Z,56.40
2022-09-21T05:23:41.634Z,55.69
2022-09-21T05:26:08.667Z,55.54
2022-09-21T05:28:39.875Z,55.31
2022-09-21T05:31:28.312Z,56.15
2022-09-21T05:34:05.759Z,56.07
2022-09-21T05:36:58.355Z,55.99
2022-09-21T05:39:26.094Z,55.43
2022-09-21T05:41:53.841Z,54.98
2022-09-21T05:44:21.809Z,55.79
2022-09-21T05:47:05.022Z,56.00
2022-09-21T05:49:44.087Z,56.43
2022-09-21T05:52:25.102Z,55.84
2022-09-21T05:55:13.268Z,56.69
2022-09-21T05:57:40.342Z,56.67
2022-09-21T06:00:22.252Z,56.40
2022-09-21T06:03:04.261Z,55.44
2022-09-21T06:05:31.351Z,55.69
2022-09-21T06:07:58.498Z,55.06
2022-09-21T06:10:25.804Z,54.41
2022-09-21T06:12:52.879Z,54.58
2022-09-21T06:15:20.056Z,54.52
2022-09-21T06:17:47.137Z,54.46
2022-09-21T06:20:14.312Z,54.66
2022-09-21T06:22:41.431Z,54.38
2022-09-21T06:25:08.698Z,54.25
2022-09-21T06:27:35.858Z,53.83
2022-09-21T06:30:03.313Z,53.62
2022-09-21T06:32:31.303Z,53.20
2022-09-21T06:34:58.382Z,53.52
2022-09-21T06:37:25.465Z,53.85
2022-09-21T06:39:52.510Z,53.46
2022-09-21T06:42:19.662Z,53.55
2022-09-21T06:44:47.249Z,53.64
2022-09-21T06:47:14.413Z,53.21
2022-09-21T06:49:42.694Z,52.88
2022-09-21T06:52:09.950Z,54.29
2022-09-21T06:54:36.997Z,53.79
2022-09-21T06:57:04.171Z,52.94
2022-09-21T06:59:31.533Z,53.05
2022-09-21T07:01:58.875Z,52.93
2022-09-21T07:04:26.113Z,53.06
2022-09-21T07:06:53.248Z,53.09
2022-09-21T07:12:08.067Z,52.96
2022-09-21T07:14:35.218Z,52.57
2022-09-21T07:17:02.493Z,52.22
2022-09-21T07:19:29.576Z,52.38
2022-09-21T07:21:56.689Z,51.69
2022-09-21T07:24:23.846Z,51.52
2022-09-21T07:26:50.975Z,50.96
2022-09-21T07:29:18.029Z,50.50
2022-09-21T07:31:45.790Z,50.28
2022-09-21T07:34:12.907Z,49.88
2022-09-21T07:36:40.508Z,48.73
2022-09-21T07:39:10.304Z,48.65
2022-09-21T07:41:37.677Z,48.76
2022-09-21T07:44:05.475Z,49.94
2022-09-21T07:46:32.650Z,50.19
2022-09-21T07:48:59.853Z,50.81
2022-09-21T07:51:27.086Z,51.30
2022-09-21T07:53:59.349Z,51.11
2022-09-21T07:56:26.624Z,51.37
2022-09-21T07:59:06.122Z,51.20
2022-09-21T08:01:39.456Z,50.07
2022-09-21T08:04:09.684Z,49.36
2022-09-21T08:06:40.111Z,49.81
2022-09-21T08:09:08.791Z,49.61
2022-09-21T08:11:37.463Z,49.20
2022-09-21T08:14:05.100Z,48.55
2022-09-21T08:16:34.086Z,48.86
2022-09-21T08:19:02.284Z,49.86
2022-09-21T08:21:29.581Z,49.81
2022-09-21T08:23:57.037Z,48.44
2022-09-21T08:26:24.816Z,47.96
2022-09-21T08:28:53.812Z,47.39
2022-09-21T08:31:24.236Z,47.48
2022-09-21T08:33:52.832Z,48.02
2022-09-21T08:36:20.136Z,46.94
2022-09-21T08:38:48.414Z,47.77
2022-09-21T08:41:22.627Z,47.93
2022-09-21T08:43:55.872Z,47.71
2022-09-21T08:46:26.563Z,47.64
2022-09-21T08:49:14.748Z,48.79
2022-09-21T08:51:57.083Z,50.10
2022-09-21T08:54:56.430Z,49.65
2022-09-21T08:57:30.139Z,49.16
2022-09-21T08:59:59.305Z,49.82
2022-09-21T09:03:08.686Z,49.32
2022-09-21T09:06:00.294Z,49.75
2022-09-21T09:08:45.627Z,49.18
2022-09-21T09:11:24.799Z,48.38
2022-09-21T09:14:27.983Z,47.01
2022-09-21T09:17:20.078Z,45.59
2022-09-21T09:19:58.066Z,46.25
2022-09-21T09:22:41.068Z,46.32
2022-09-21T09:25:24.944Z,47.62
2022-09-21T09:27:59.745Z,46.63
2022-09-21T09:30:30.827Z,46.41
2022-09-21T09:33:06.746Z,46.46
2022-09-21T09:35:41.452Z,45.80
2022-09-21T09:38:34.897Z,44.94
2022-09-21T09:41:13.874Z,45.65
2022-09-21T09:44:08.517Z,44.77
2022-09-21T09:47:28.046Z,44.16
2022-09-21T09:50:13.485Z,42.62
2022-09-21T09:52:41.360Z,42.27
2022-09-21T09:55:41.132Z,43.25
2022-09-21T09:58:25.415Z,43.78
2022-09-21T10:00:55.324Z,44.17
2022-09-21T10:03:26.076Z,45.44
2022-09-21T10:05:54.053Z,44.81
2022-09-21T10:08:39.347Z,43.87
2022-09-21T10:11:06.656Z,43.34
2022-09-21T10:13:36.673Z,42.68
2022-09-21T10:16:18.335Z,42.72
2022-09-21T10:18:52.682Z,42.22
2022-09-21T10:21:33.064Z,41.57
2022-09-21T10:24:25.568Z,40.93
2022-09-21T10:26:57.838Z,41.34
2022-09-21T10:29:25.490Z,42.34
2022-09-21T10:32:04.175Z,43.24
2022-09-21T10:34:34.518Z,43.78
2022-09-21T10:37:29.498Z,44.48
2022-09-21T10:39:57.256Z,44.46
2022-09-21T10:42:24.535Z,44.40
2022-09-21T10:45:07.171Z,45.10
2022-09-21T10:48:01.889Z,45.18
2022-09-21T10:50:49.240Z,44.25
2022-09-21T10:53:30.569Z,43.84
2022-09-21T10:56:16.475Z,43.88
2022-09-21T10:59:12.721Z,42.21
2022-09-21T11:01:49.773Z,41.63
2022-09-21T11:04:43.713Z,42.99
2022-09-21T11:07:25.452Z,43.85
2022-09-21T11:10:15.247Z,43.99
2022-09-21T11:13:20.897Z,43.51
2022-09-21T11:16:23.329Z,43.45
2022-09-21T11:19:32.545Z,42.12
2022-09-21T11:22:25.715Z,41.22
2022-09-21T11:25:36.729Z,39.53
2022-09-21T11:28:13.473Z,39.61
2022-09-21T11:31:11.948Z,38.90
2022-09-21T11:34:22.479Z,37.19
2022-09-21T11:37:01.725Z,36.88
2022-09-21T11:39:54.331Z,37.45
2022-09-21T11:42:40.658Z,35.83
2022-09-21T11:45:28.874Z,36.53
2022-09-21T11:48:30.192Z,38.66
2022-09-21T11:51:49.758Z,39.15
2022-09-21T11:55:05.195Z,37.99
2022-09-21T11:57:55.197Z,37.17
2022-09-21T12:00:25.085Z,37.05
2022-09-21T12:03:26.253Z,36.86
2022-09-21T12:06:59.879Z,31.67
2022-09-21T12:09:30.639Z,26.78
2022-09-21T12:12:10.762Z,26.60
2022-09-21T12:15:11.537Z,28.71
2022-09-21T12:17:51.113Z,31.52
2022-09-21T12:20:24.823Z,34.09
2022-09-21T12:23:00.372Z,35.32
2022-09-21T12:25:41.735Z,35.92
2022-09-21T12:28:27.930Z,35.17
2022-09-21T12:31:26.912Z,30.82
2022-09-21T12:34:13.160Z,29.97
2022-09-21T12:36:47.651Z,30.99
2022-09-21T12:39:39.649Z,33.22
2022-09-21T12:42:40.883Z,33.08
2022-09-21T12:45:23.113Z,31.56
2022-09-21T12:47:59.308Z,32.82
2022-09-21T12:50:39.927Z,33.78
2022-09-21T12:53:11.353Z,34.98
2022-09-21T12:55:53.133Z,35.85
2022-09-21T12:58:38.502Z,36.80
2022-09-21T13:01:21.233Z,38.22
2022-09-21T13:04:43.312Z,39.14
2022-09-21T13:07:19.255Z,41.25
2022-09-21T13:09:47.650Z,41.73
2022-09-21T13:12:18.141Z,42.03
2022-09-21T13:14:50.636Z,42.03
2022-09-21T13:17:29.155Z,41.93
2022-09-21T13:20:17.175Z,42.20
2022-09-21T13:22:46.198Z,42.32
2022-09-21T13:25:28.162Z,42.32
2022-09-21T13:28:24.187Z,40.35
2022-09-21T13:31:45.597Z,35.59
2022-09-21T13:34:25.068Z,32.64
2022-09-21T13:37:19.571Z,34.23
2022-09-21T13:40:13.120Z,35.03
2022-09-21T13:42:48.915Z,37.35
2022-09-21T13:45:17.892Z,37.78
2022-09-21T13:47:47.933Z,34.93
2022-09-21T13:50:39.671Z,30.77
2022-09-21T13:53:19.570Z,27.58
2022-09-21T13:55:56.993Z,26.28
2022-09-21T13:58:33.954Z,25.23
2022-09-21T14:01:09.943Z,24.56
2022-09-21T14:03:58.082Z,24.78
2022-09-21T14:06:32.678Z,25.03
2022-09-21T14:09:09.055Z,26.96
2022-09-21T14:11:45.182Z,28.46
2022-09-21T14:14:12.348Z,30.84
2022-09-21T14:16:39.575Z,33.02
2022-09-21T14:19:18.663Z,34.34
2022-09-21T14:22:04.456Z,34.49
2022-09-21T14:24:38.343Z,34.71
2022-09-21T14:27:36.403Z,35.46
2022-09-21T14:30:21.590Z,36.44
2022-09-21T14:33:00.974Z,37.33
2022-09-21T14:35:37.769Z,38.31
2022-09-21T14:38:37.926Z,39.16
2022-09-21T14:41:08.140Z,39.37
2022-09-21T14:43:37.831Z,40.68
2022-09-21T14:46:36.218Z,41.67
2022-09-21T14:49:16.536Z,42.25
2022-09-21T14:52:33.285Z,43.01
2022-09-21T14:55:19.169Z,42.74
2022-09-21T14:58:31.435Z,42.60
2022-09-21T15:01:34.478Z,42.65
2022-09-21T15:04:30.489Z,42.83
2022-09-21T15:07:45.093Z,43.21
2022-09-21T15:10:56.360Z,43.32
2022-09-21T15:14:07.195Z,43.10
2022-09-21T15:16:39.705Z,42.99
2022-09-21T15:19:19.207Z,43.19
2022-09-21T15:21:55.335Z,43.03
2022-09-21T15:24:34.315Z,43.05
2022-09-21T15:27:10.215Z,43.90
2022-09-21T15:29:38.370Z,43.95
2022-09-21T15:32:06.942Z,44.92
2022-09-21T15:34:34.040Z,45.50
2022-09-21T15:37:17.059Z,45.20
2022-09-21T15:39:44.439Z,45.40
2022-09-21T15:42:19.988Z,45.31
2022-09-21T15:44:50.622Z,45.41
2022-09-21T15:47:24.126Z,45.17
2022-09-21T15:49:53.154Z,44.53
2022-09-21T15:52:34.835Z,43.92
2022-09-21T15:55:21.562Z,44.09
2022-09-21T15:57:56.910Z,44.07
2022-09-21T16:00:28.724Z,44.30
2022-09-21T16:03:19.580Z,44.18
2022-09-21T16:05:51.420Z,44.63
2022-09-21T16:08:30.539Z,44.56
2022-09-21T16:11:23.294Z,44.75
2022-09-21T16:14:35.931Z,44.91
2022-09-21T16:17:12.344Z,45.62
2022-09-21T16:19:50.977Z,46.55
2022-09-21T16:22:32.095Z,47.45
2022-09-21T16:25:01.731Z,46.90
2022-09-21T16:27:32.101Z,47.40
2022-09-21T16:30:01.461Z,47.86
2022-09-21T16:32:34.193Z,48.26
2022-09-21T16:35:29.245Z,48.73
2022-09-21T16:37:59.077Z,49.36
2022-09-21T16:40:28.309Z,50.01
2022-09-21T16:42:56.727Z,50.12
2022-09-21T16:45:32.486Z,50.39
2022-09-21T16:48:00.074Z,51.13
2022-09-21T16:50:27.148Z,51.40
2022-09-21T16:52:54.348Z,52.04
2022-09-21T16:55:26.831Z,52.45
2022-09-21T16:57:56.176Z,52.92
2022-09-21T17:00:23.794Z,53.38
2022-09-21T17:02:51.102Z,53.67
2022-09-21T17:05:19.418Z,53.57
2022-09-21T17:08:15.765Z,54.15
2022-09-21T17:10:51.957Z,53.95
2022-09-21T17:13:28.156Z,53.69
2022-09-21T17:15:55.311Z,53.35
2022-09-21T17:18:22.350Z,53.75
2022-09-21T17:20:52.538Z,54.02
2022-09-21T17:23:20.869Z,54.05
2022-09-21T17:25:49.668Z,54.22
2022-09-21T17:28:26.133Z,53.71
2022-09-21T17:30:57.116Z,53.61
2022-09-21T17:33:25.465Z,53.82
2022-09-21T17:35:55.736Z,54.33
2022-09-21T17:38:22.887Z,54.61
2022-09-21T17:40:50.674Z,55.03
2022-09-21T17:43:58.270Z,54.81
2022-09-21T17:46:43.341Z,55.38
2022-09-21T17:49:11.957Z,54.88
2022-09-21T17:51:58.537Z,55.33
2022-09-21T17:54:27.627Z,55.37
2022-09-21T17:57:00.027Z,55.60
2022-09-21T17:59:33.828Z,55.63
2022-09-21T18:02:02.883Z,55.94
2022-09-21T18:04:34.942Z,55.69
2022-09-21T18:07:03.447Z,55.23
2022-09-21T18:09:30.844Z,55.24
2022-09-21T18:12:06.912Z,55.25
2022-09-21T18:15:27.398Z,55.40
2022-09-21T18:18:14.926Z,55.47
2022-09-21T18:21:02.254Z,55.64
2022-09-21T18:23:45.635Z,55.76
2022-09-21T18:26:15.525Z,55.96
2022-09-21T18:28:46.569Z,55.93
2022-09-21T18:31:40.247Z,55.44
2022-09-21T18:34:55.462Z,55.37
2022-09-21T18:37:55.271Z,55.42
2022-09-21T18:40:33.554Z,55.64
2022-09-21T18:43:41.278Z,55.58
2022-09-21T18:46:17.864Z,55.79
2022-09-21T18:49:23.236Z,56.04
2022-09-21T18:52:10.971Z,56.14
2022-09-21T18:54:39.564Z,56.63
2022-09-21T18:57:14.175Z,56.78
2022-09-21T18:59:42.606Z,56.95
2022-09-21T19:02:16.566Z,57.18
2022-09-21T19:04:50.323Z,57.07
2022-09-21T19:07:41.392Z,57.05
2022-09-21T19:10:21.644Z,57.07
2022-09-21T19:13:02.221Z,56.83
2022-09-21T19:16:01.948Z,57.22
2022-09-21T19:19:15.822Z,57.34
2022-09-21T19:21:52.621Z,57.29
2022-09-21T19:24:42.744Z,57.40
2022-09-21T19:27:39.406Z,57.50
2022-09-21T19:30:12.935Z,57.48
2022-09-21T19:33:00.134Z,57.55
2022-09-21T19:35:34.349Z,57.48
2022-09-21T19:38:03.994Z,57.38
2022-09-21T19:40:35.266Z,57.16
2022-09-21T19:43:31.402Z,57.36
2022-09-21T19:46:27.568Z,57.48
2022-09-21T19:49:08.946Z,57.41
2022-09-21T19:51:42.991Z,57.37
2022-09-21T19:54:35.058Z,57.60
2022-09-21T19:57:30.701Z,57.95
2022-09-21T19:59:58.846Z,58.32
2022-09-21T20:03:05.782Z,58.46
2022-09-21T20:06:08.901Z,58.19
2022-09-21T20:09:07.798Z,58.95
2022-09-21T20:12:06.973Z,58.97
2022-09-21T20:14:49.416Z,59.12
2022-09-21T20:17:30.400Z,59.42
2022-09-21T20:20:08.574Z,59.58
2022-09-21T20:22:41.326Z,59.73
2022-09-21T20:25:28.006Z,59.67
2022-09-21T20:27:57.276Z,59.67
2022-09-21T20:30:32.760Z,59.87
2022-09-21T20:33:07.611Z,59.83
2022-09-21T20:35:35.201Z,60.14
2022-09-21T20:38:03.331Z,59.97
2022-09-21T20:40:32.105Z,60.21
2022-09-21T20:43:01.254Z,60.44
2022-09-21T20:45:29.848Z,60.61
2022-09-21T20:48:15.808Z,60.64
2022-09-21T20:50:49.103Z,60.28
2022-09-21T20:53:17.169Z,60.59
2022-09-21T20:55:57.405Z,60.74
2022-09-21T20:58:25.242Z,60.60
2022-09-21T21:00:57.949Z,60.36
2022-09-21T21:03:26.196Z,60.00
2022-09-21T21:05:53.518Z,59.80
2022-09-21T21:08:20.542Z,59.33
2022-09-21T21:10:47.742Z,58.90
2022-09-21T21:13:14.757Z,58.91
2022-09-21T21:15:41.919Z,58.51
2022-09-21T21:18:12.366Z,58.42
2022-09-21T21:20:41.009Z,58.43
2022-09-21T21:23:08.388Z,58.39
2022-09-21T21:25:35.972Z,58.51
2022-09-21T21:28:03.676Z,58.41
2022-09-21T21:30:31.526Z,58.20
2022-09-21T21:32:58.601Z,58.25
2022-09-21T21:35:25.999Z,58.06
2022-09-21T21:37:53.335Z,58.55
2022-09-21T21:40:21.210Z,58.95
2022-09-21T21:42:48.551Z,59.24
2022-09-21T21:45:15.837Z,59.41
2022-09-21T21:47:43.005Z,59.15
2022-09-21T21:50:11.307Z,59.40
2022-09-21T21:52:39.142Z,59.40
2022-09-21T21:55:07.557Z,59.24
2022-09-21T21:57:34.954Z,58.62
2022-09-21T22:00:02.548Z,58.19
2022-09-21T22:02:32.621Z,58.80
2022-09-21T22:04:59.893Z,59.01
2022-09-21T22:07:27.391Z,59.15
2022-09-21T22:09:54.630Z,59.36
2022-09-21T22:12:22.186Z,58.82
2022-09-21T22:14:49.614Z,58.34
2022-09-21T22:17:16.880Z,58.35
2022-09-21T22:19:44.048Z,58.55
2022-09-21T22:22:11.179Z,58.60
2022-09-21T22:24:38.256Z,58.66
2022-09-21T22:27:05.405Z,58.46
2022-09-21T22:29:32.651Z,58.30
2022-09-21T22:32:00.615Z,58.48
2022-09-21T22:34:34.572Z,58.27
2022-09-21T22:37:01.848Z,58.18
2022-09-21T22:39:29.006Z,58.22
2022-09-21T22:41:57.385Z,58.48
2022-09-21T22:44:24.626Z,58.35
2022-09-21T22:46:51.712Z,57.52
2022-09-21T22:49:18.746Z,57.41
2022-09-21T22:51:45.892Z,57.39
2022-09-21T22:54:13.061Z,57.57
2022-09-21T22:56:40.233Z,57.72
2022-09-21T22:59:08.443Z,57.72
2022-09-21T23:01:39.458Z,57.67
2022-09-21T23:04:12.081Z,57.53
2022-09-21T23:06:45.314Z,57.63
2022-09-21T23:09:19.695Z,57.27
2022-09-21T23:11:53.359Z,57.24
2022-09-21T23:14:21.950Z,57.07
2022-09-21T23:16:49.113Z,56.91
2022-09-21T23:19:16.280Z,56.90
2022-09-21T23:21:49.571Z,56.19
2022-09-21T23:24:17.561Z,55.98
2022-09-21T23:26:45.636Z,56.26
2022-09-21T23:29:15.382Z,56.90
2022-09-21T23:31:45.469Z,56.79
2022-09-21T23:34:14.534Z,57.04
2022-09-21T23:36:43.445Z,57.38
2022-09-21T23:39:14.050Z,56.69
2022-09-21T23:41:41.530Z,56.59
2022-09-21T23:44:09.107Z,56.63
2022-09-21T23:46:38.756Z,56.59
2022-09-21T23:49:06.410Z,56.67
2022-09-21T23:51:34.623Z,57.00
2022-09-21T23:54:01.998Z,57.05
2022-09-21T23:56:30.059Z,56.56
2022-09-21T23:58:58.228Z,56.89
